Terminal Aerodrome Forecast
Issued by NWS

Home | Current Version | Previous Version | Text Only | Print | Product List | Glossary On
Versions: 1 2 3 4 5 6 7 8 9 10 11 12 13 14 15 16
000
FTUS43 KFGF 041136
TAFTVF
TAF
KTVF 041136Z 0412/0512 15009KT P6SM FEW015
      TEMPO 0412/0416 BKN015
     FM041600 15010KT P6SM BKN250
     FM041900 16010KT P6SM VCTS BKN050CB
     FM050200 14006KT P6SM BKN100
      AMD LTD TO CLD VIS AND WIND=

USA.gov is the U.S. government's official web portal to all federal, state and local government web resources and services.